sensor_id;sensor_type;location;lat;lon;timestamp;P1;durP1;ratioP1;P2;durP2;ratioP2
33152;SDS011;19509;43.862;26.176;2022-12-16T00:00:05;9.33;;;3.20;;
33152;SDS011;19509;43.862;26.176;2022-12-16T00:02:35;85.93;;;12.47;;
33152;SDS011;19509;43.862;26.176;2022-12-16T00:05:01;85.73;;;12.33;;
33152;SDS011;19509;43.862;26.176;2022-12-16T00:07:27;72.60;;;10.33;;
33152;SDS011;19509;43.862;26.176;2022-12-16T00:09:52;79.47;;;10.87;;
33152;SDS011;19509;43.862;26.176;2022-12-16T00:12:18;65.47;;;11.60;;
33152;SDS011;19509;43.862;26.176;2022-12-16T00:14:43;43.20;;;7.57;;
33152;SDS011;19509;43.862;26.176;2022-12-16T00:17:08;15.97;;;4.63;;
33152;SDS011;19509;43.862;26.176;2022-12-16T00:19:34;14.43;;;4.40;;
33152;SDS011;19509;43.862;26.176;2022-12-16T00:21:59;38.23;;;9.00;;
33152;SDS011;19509;43.862;26.176;2022-12-16T00:24:25;121.07;;;11.60;;
33152;SDS011;19509;43.862;26.176;2022-12-16T00:26:50;24.67;;;5.67;;
33152;SDS011;19509;43.862;26.176;2022-12-16T00:29:16;70.57;;;10.20;;
33152;SDS011;19509;43.862;26.176;2022-12-16T00:31:41;92.30;;;11.53;;
33152;SDS011;19509;43.862;26.176;2022-12-16T00:34:11;69.73;;;10.57;;
33152;SDS011;19509;43.862;26.176;2022-12-16T00:36:38;11.53;;;4.60;;
33152;SDS011;19509;43.862;26.176;2022-12-16T00:39:03;33.97;;;6.20;;
33152;SDS011;19509;43.862;26.176;2022-12-16T00:41:28;45.20;;;7.60;;
33152;SDS011;19509;43.862;26.176;2022-12-16T00:43:54;45.93;;;7.50;;
33152;SDS011;19509;43.862;26.176;2022-12-16T00:46:19;64.63;;;9.17;;
33152;SDS011;19509;43.862;26.176;2022-12-16T00:48:45;20.03;;;5.67;;
33152;SDS011;19509;43.862;26.176;2022-12-16T00:51:10;42.00;;;7.67;;
33152;SDS011;19509;43.862;26.176;2022-12-16T00:53:35;38.90;;;6.90;;
33152;SDS011;19509;43.862;26.176;2022-12-16T00:58:27;26.23;;;6.00;;
33152;SDS011;19509;43.862;26.176;2022-12-16T01:00:53;20.40;;;4.97;;
33152;SDS011;19509;43.862;26.176;2022-12-16T01:03:18;21.07;;;4.40;;
33152;SDS011;19509;43.862;26.176;2022-12-16T01:05:43;14.17;;;4.27;;
33152;SDS011;19509;43.862;26.176;2022-12-16T01:08:09;22.63;;;6.00;;
33152;SDS011;19509;43.862;26.176;2022-12-16T01:10:34;17.80;;;5.33;;
33152;SDS011;19509;43.862;26.176;2022-12-16T01:13:00;15.70;;;3.87;;
33152;SDS011;19509;43.862;26.176;2022-12-16T01:15:25;11.33;;;4.00;;
33152;SDS011;19509;43.862;26.176;2022-12-16T01:17:51;20.70;;;4.50;;
33152;SDS011;19509;43.862;26.176;2022-12-16T01:20:16;18.23;;;4.37;;
33152;SDS011;19509;43.862;26.176;2022-12-16T01:22:41;23.97;;;4.73;;
33152;SDS011;19509;43.862;26.176;2022-12-16T01:25:08;12.50;;;3.90;;
33152;SDS011;19509;43.862;26.176;2022-12-16T01:27:35;19.50;;;3.73;;
33152;SDS011;19509;43.862;26.176;2022-12-16T01:30:00;33.80;;;5.50;;
33152;SDS011;19509;43.862;26.176;2022-12-16T01:32:26;23.93;;;6.23;;
33152;SDS011;19509;43.862;26.176;2022-12-16T01:34:52;15.20;;;5.33;;
33152;SDS011;19509;43.862;26.176;2022-12-16T01:37:18;10.70;;;5.50;;
33152;SDS011;19509;43.862;26.176;2022-12-16T01:39:44;23.30;;;4.60;;
33152;SDS011;19509;43.862;26.176;2022-12-16T01:42:11;26.53;;;7.13;;
33152;SDS011;19509;43.862;26.176;2022-12-16T01:44:38;11.27;;;4.40;;
33152;SDS011;19509;43.862;26.176;2022-12-16T01:47:08;35.33;;;6.50;;
33152;SDS011;19509;43.862;26.176;2022-12-16T01:52:36;25.03;;;6.97;;
33152;SDS011;19509;43.862;26.176;2022-12-16T01:55:14;15.17;;;5.17;;
33152;SDS011;19509;43.862;26.176;2022-12-16T01:57:58;74.17;;;10.50;;
33152;SDS011;19509;43.862;26.176;2022-12-16T02:00:31;79.43;;;11.77;;
33152;SDS011;19509;43.862;26.176;2022-12-16T02:02:58;27.83;;;7.83;;
33152;SDS011;19509;43.862;26.176;2022-12-16T02:05:24;11.87;;;6.07;;
33152;SDS011;19509;43.862;26.176;2022-12-16T02:08:00;19.30;;;6.63;;
33152;SDS011;19509;43.862;26.176;2022-12-16T02:23:58;18.30;;;5.37;;
33152;SDS011;19509;43.862;26.176;2022-12-16T02:35:00;28.53;;;7.03;;
33152;SDS011;19509;43.862;26.176;2022-12-16T02:40:26;19.07;;;5.87;;
33152;SDS011;19509;43.862;26.176;2022-12-16T02:42:59;11.10;;;4.27;;
33152;SDS011;19509;43.862;26.176;2022-12-16T02:45:31;14.13;;;3.63;;
33152;SDS011;19509;43.862;26.176;2022-12-16T02:47:58;32.33;;;8.60;;
33152;SDS011;19509;43.862;26.176;2022-12-16T02:50:32;15.63;;;5.10;;
33152;SDS011;19509;43.862;26.176;2022-12-16T02:53:05;30.40;;;7.27;;
33152;SDS011;19509;43.862;26.176;2022-12-16T02:58:18;27.30;;;6.67;;
33152;SDS011;19509;43.862;26.176;2022-12-16T03:01:12;42.30;;;9.20;;
33152;SDS011;19509;43.862;26.176;2022-12-16T03:03:57;25.43;;;7.03;;
33152;SDS011;19509;43.862;26.176;2022-12-16T03:06:31;18.67;;;5.30;;
33152;SDS011;19509;43.862;26.176;2022-12-16T03:09:00;33.27;;;7.27;;
33152;SDS011;19509;43.862;26.176;2022-12-16T03:11:29;35.20;;;8.13;;
33152;SDS011;19509;43.862;26.176;2022-12-16T03:13:56;28.83;;;6.53;;
33152;SDS011;19509;43.862;26.176;2022-12-16T03:16:25;47.93;;;9.37;;
33152;SDS011;19509;43.862;26.176;2022-12-16T03:18:54;48.20;;;10.27;;
33152;SDS011;19509;43.862;26.176;2022-12-16T03:21:24;29.30;;;8.10;;
33152;SDS011;19509;43.862;26.176;2022-12-16T03:23:58;29.50;;;8.10;;
33152;SDS011;19509;43.862;26.176;2022-12-16T03:26:32;16.77;;;5.50;;
33152;SDS011;19509;43.862;26.176;2022-12-16T03:29:18;24.97;;;8.60;;
33152;SDS011;19509;43.862;26.176;2022-12-16T03:31:54;39.40;;;9.70;;
33152;SDS011;19509;43.862;26.176;2022-12-16T03:34:31;44.47;;;10.40;;
33152;SDS011;19509;43.862;26.176;2022-12-16T03:37:07;26.93;;;6.30;;
33152;SDS011;19509;43.862;26.176;2022-12-16T03:39:35;34.23;;;8.97;;
33152;SDS011;19509;43.862;26.176;2022-12-16T03:42:05;9.37;;;4.60;;
33152;SDS011;19509;43.862;26.176;2022-12-16T03:44:33;32.47;;;8.00;;
33152;SDS011;19509;43.862;26.176;2022-12-16T03:46:59;27.43;;;7.93;;
33152;SDS011;19509;43.862;26.176;2022-12-16T03:49:25;51.93;;;10.80;;
33152;SDS011;19509;43.862;26.176;2022-12-16T03:51:51;45.20;;;10.93;;
33152;SDS011;19509;43.862;26.176;2022-12-16T03:54:18;23.67;;;8.30;;
33152;SDS011;19509;43.862;26.176;2022-12-16T03:56:44;22.53;;;7.20;;
33152;SDS011;19509;43.862;26.176;2022-12-16T03:59:09;23.27;;;6.50;;
33152;SDS011;19509;43.862;26.176;2022-12-16T04:01:35;23.73;;;6.80;;
33152;SDS011;19509;43.862;26.176;2022-12-16T04:04:01;29.60;;;8.50;;
33152;SDS011;19509;43.862;26.176;2022-12-16T04:06:27;20.93;;;6.97;;
33152;SDS011;19509;43.862;26.176;2022-12-16T04:08:53;15.73;;;6.20;;
33152;SDS011;19509;43.862;26.176;2022-12-16T04:11:18;15.67;;;5.10;;
33152;SDS011;19509;43.862;26.176;2022-12-16T04:14:02;37.27;;;8.27;;
33152;SDS011;19509;43.862;26.176;2022-12-16T04:16:45;54.70;;;11.80;;
33152;SDS011;19509;43.862;26.176;2022-12-16T04:19:31;36.83;;;9.60;;
33152;SDS011;19509;43.862;26.176;2022-12-16T04:22:28;31.87;;;8.10;;
33152;SDS011;19509;43.862;26.176;2022-12-16T04:25:15;32.47;;;7.70;;
33152;SDS011;19509;43.862;26.176;2022-12-16T04:27:44;32.00;;;10.17;;
33152;SDS011;19509;43.862;26.176;2022-12-16T04:30:13;15.17;;;4.90;;
33152;SDS011;19509;43.862;26.176;2022-12-16T04:32:47;43.40;;;9.57;;
33152;SDS011;19509;43.862;26.176;2022-12-16T04:35:38;51.17;;;12.37;;
33152;SDS011;19509;43.862;26.176;2022-12-16T04:38:22;29.60;;;8.67;;
33152;SDS011;19509;43.862;26.176;2022-12-16T04:41:05;24.97;;;8.87;;
33152;SDS011;19509;43.862;26.176;2022-12-16T04:43:49;39.70;;;10.30;;
33152;SDS011;19509;43.862;26.176;2022-12-16T04:46:33;33.63;;;8.87;;
33152;SDS011;19509;43.862;26.176;2022-12-16T04:49:17;31.73;;;8.03;;
33152;SDS011;19509;43.862;26.176;2022-12-16T04:52:01;46.90;;;11.47;;
33152;SDS011;19509;43.862;26.176;2022-12-16T04:54:45;43.20;;;9.13;;
33152;SDS011;19509;43.862;26.176;2022-12-16T04:57:29;44.47;;;11.27;;
33152;SDS011;19509;43.862;26.176;2022-12-16T05:00:13;34.63;;;10.40;;
33152;SDS011;19509;43.862;26.176;2022-12-16T05:02:57;19.47;;;6.30;;
33152;SDS011;19509;43.862;26.176;2022-12-16T05:05:41;19.10;;;6.00;;
33152;SDS011;19509;43.862;26.176;2022-12-16T05:08:25;38.83;;;10.23;;
33152;SDS011;19509;43.862;26.176;2022-12-16T05:11:09;25.10;;;8.43;;
33152;SDS011;19509;43.862;26.176;2022-12-16T05:13:53;32.43;;;9.37;;
33152;SDS011;19509;43.862;26.176;2022-12-16T05:16:37;37.17;;;10.07;;
33152;SDS011;19509;43.862;26.176;2022-12-16T05:19:21;27.00;;;8.60;;
33152;SDS011;19509;43.862;26.176;2022-12-16T05:22:05;45.40;;;11.80;;
33152;SDS011;19509;43.862;26.176;2022-12-16T05:24:49;13.80;;;5.60;;
33152;SDS011;19509;43.862;26.176;2022-12-16T05:27:33;41.23;;;10.73;;
33152;SDS011;19509;43.862;26.176;2022-12-16T05:30:17;55.73;;;13.80;;
33152;SDS011;19509;43.862;26.176;2022-12-16T05:33:01;40.63;;;10.23;;
33152;SDS011;19509;43.862;26.176;2022-12-16T05:35:45;23.77;;;7.33;;
33152;SDS011;19509;43.862;26.176;2022-12-16T05:38:28;7.83;;;4.50;;
33152;SDS011;19509;43.862;26.176;2022-12-16T05:41:12;32.83;;;9.20;;
33152;SDS011;19509;43.862;26.176;2022-12-16T05:43:56;37.70;;;10.07;;
33152;SDS011;19509;43.862;26.176;2022-12-16T05:46:40;40.37;;;10.00;;
33152;SDS011;19509;43.862;26.176;2022-12-16T05:49:24;35.30;;;9.27;;
33152;SDS011;19509;43.862;26.176;2022-12-16T05:52:08;29.10;;;7.53;;
33152;SDS011;19509;43.862;26.176;2022-12-16T05:54:52;43.77;;;9.67;;
33152;SDS011;19509;43.862;26.176;2022-12-16T05:57:36;19.50;;;6.10;;
33152;SDS011;19509;43.862;26.176;2022-12-16T06:00:20;35.23;;;10.57;;
33152;SDS011;19509;43.862;26.176;2022-12-16T06:03:04;58.90;;;13.27;;
33152;SDS011;19509;43.862;26.176;2022-12-16T06:05:48;22.33;;;6.40;;
33152;SDS011;19509;43.862;26.176;2022-12-16T06:08:32;28.47;;;9.70;;
33152;SDS011;19509;43.862;26.176;2022-12-16T06:11:16;28.43;;;8.70;;
33152;SDS011;19509;43.862;26.176;2022-12-16T06:14:00;47.30;;;13.00;;
33152;SDS011;19509;43.862;26.176;2022-12-16T06:16:44;16.37;;;5.43;;
33152;SDS011;19509;43.862;26.176;2022-12-16T06:19:28;17.07;;;6.47;;
33152;SDS011;19509;43.862;26.176;2022-12-16T06:22:12;18.47;;;6.90;;
33152;SDS011;19509;43.862;26.176;2022-12-16T06:24:56;46.50;;;10.10;;
33152;SDS011;19509;43.862;26.176;2022-12-16T06:27:40;20.33;;;6.20;;
33152;SDS011;19509;43.862;26.176;2022-12-16T06:30:24;47.50;;;10.40;;
33152;SDS011;19509;43.862;26.176;2022-12-16T06:33:08;22.77;;;8.10;;
33152;SDS011;19509;43.862;26.176;2022-12-16T06:35:52;26.27;;;7.07;;
33152;SDS011;19509;43.862;26.176;2022-12-16T06:38:35;25.53;;;8.70;;
33152;SDS011;19509;43.862;26.176;2022-12-16T06:41:19;43.33;;;10.33;;
33152;SDS011;19509;43.862;26.176;2022-12-16T06:44:03;25.47;;;7.47;;
33152;SDS011;19509;43.862;26.176;2022-12-16T06:46:47;17.93;;;6.03;;
33152;SDS011;19509;43.862;26.176;2022-12-16T06:49:31;29.80;;;7.63;;
33152;SDS011;19509;43.862;26.176;2022-12-16T06:52:15;34.27;;;8.77;;
33152;SDS011;19509;43.862;26.176;2022-12-16T06:54:59;72.20;;;12.20;;
33152;SDS011;19509;43.862;26.176;2022-12-16T06:57:43;28.23;;;8.43;;
33152;SDS011;19509;43.862;26.176;2022-12-16T07:00:27;30.50;;;8.07;;
33152;SDS011;19509;43.862;26.176;2022-12-16T07:03:10;20.50;;;6.00;;
33152;SDS011;19509;43.862;26.176;2022-12-16T07:05:54;40.23;;;9.53;;
33152;SDS011;19509;43.862;26.176;2022-12-16T07:08:38;56.80;;;10.07;;
33152;SDS011;19509;43.862;26.176;2022-12-16T07:11:22;27.80;;;8.57;;
33152;SDS011;19509;43.862;26.176;2022-12-16T07:14:06;73.40;;;14.20;;
33152;SDS011;19509;43.862;26.176;2022-12-16T07:16:50;14.67;;;6.80;;
33152;SDS011;19509;43.862;26.176;2022-12-16T07:19:34;20.70;;;7.43;;
33152;SDS011;19509;43.862;26.176;2022-12-16T07:22:18;26.67;;;7.00;;
33152;SDS011;19509;43.862;26.176;2022-12-16T07:25:02;33.97;;;9.40;;
33152;SDS011;19509;43.862;26.176;2022-12-16T07:27:46;34.80;;;9.90;;
33152;SDS011;19509;43.862;26.176;2022-12-16T07:30:30;30.17;;;8.67;;
33152;SDS011;19509;43.862;26.176;2022-12-16T07:33:14;47.63;;;11.63;;
33152;SDS011;19509;43.862;26.176;2022-12-16T07:35:58;35.20;;;9.47;;
33152;SDS011;19509;43.862;26.176;2022-12-16T07:38:42;65.80;;;13.43;;
33152;SDS011;19509;43.862;26.176;2022-12-16T07:41:26;89.17;;;17.07;;
33152;SDS011;19509;43.862;26.176;2022-12-16T07:44:10;91.83;;;15.27;;
33152;SDS011;19509;43.862;26.176;2022-12-16T07:46:54;13.70;;;5.73;;
33152;SDS011;19509;43.862;26.176;2022-12-16T07:49:38;30.27;;;9.20;;
33152;SDS011;19509;43.862;26.176;2022-12-16T07:52:22;50.97;;;10.30;;
33152;SDS011;19509;43.862;26.176;2022-12-16T07:55:06;57.70;;;12.57;;
33152;SDS011;19509;43.862;26.176;2022-12-16T07:57:50;63.23;;;13.60;;
33152;SDS011;19509;43.862;26.176;2022-12-16T08:00:34;36.80;;;8.50;;
33152;SDS011;19509;43.862;26.176;2022-12-16T08:03:18;21.67;;;7.70;;
33152;SDS011;19509;43.862;26.176;2022-12-16T08:06:02;54.30;;;10.50;;
33152;SDS011;19509;43.862;26.176;2022-12-16T08:08:46;21.13;;;5.27;;
33152;SDS011;19509;43.862;26.176;2022-12-16T08:11:30;50.67;;;12.30;;
33152;SDS011;19509;43.862;26.176;2022-12-16T08:14:14;52.57;;;10.43;;
33152;SDS011;19509;43.862;26.176;2022-12-16T08:16:58;56.73;;;11.80;;
33152;SDS011;19509;43.862;26.176;2022-12-16T08:19:42;58.40;;;12.73;;
33152;SDS011;19509;43.862;26.176;2022-12-16T08:22:26;18.40;;;5.17;;
33152;SDS011;19509;43.862;26.176;2022-12-16T08:25:10;28.67;;;6.53;;
33152;SDS011;19509;43.862;26.176;2022-12-16T08:27:54;44.30;;;7.23;;
33152;SDS011;19509;43.862;26.176;2022-12-16T08:30:38;50.13;;;8.60;;
33152;SDS011;19509;43.862;26.176;2022-12-16T08:33:22;61.50;;;8.03;;
33152;SDS011;19509;43.862;26.176;2022-12-16T08:36:06;14.13;;;4.70;;
33152;SDS011;19509;43.862;26.176;2022-12-16T08:38:50;54.93;;;10.87;;
33152;SDS011;19509;43.862;26.176;2022-12-16T08:41:34;18.67;;;4.50;;
33152;SDS011;19509;43.862;26.176;2022-12-16T08:44:18;57.20;;;7.30;;
33152;SDS011;19509;43.862;26.176;2022-12-16T08:47:02;51.10;;;7.20;;
33152;SDS011;19509;43.862;26.176;2022-12-16T08:49:46;75.27;;;8.50;;
33152;SDS011;19509;43.862;26.176;2022-12-16T08:52:30;56.47;;;7.03;;
33152;SDS011;19509;43.862;26.176;2022-12-16T08:55:14;57.83;;;9.40;;
33152;SDS011;19509;43.862;26.176;2022-12-16T08:57:58;82.93;;;9.73;;
33152;SDS011;19509;43.862;26.176;2022-12-16T09:00:42;102.90;;;12.37;;
33152;SDS011;19509;43.862;26.176;2022-12-16T09:03:26;78.13;;;9.27;;
33152;SDS011;19509;43.862;26.176;2022-12-16T09:06:10;52.17;;;6.27;;
33152;SDS011;19509;43.862;26.176;2022-12-16T09:08:54;30.63;;;5.90;;
33152;SDS011;19509;43.862;26.176;2022-12-16T09:11:42;47.73;;;7.60;;
33152;SDS011;19509;43.862;26.176;2022-12-16T09:14:26;21.93;;;6.07;;
33152;SDS011;19509;43.862;26.176;2022-12-16T09:17:10;24.93;;;6.90;;
33152;SDS011;19509;43.862;26.176;2022-12-16T09:19:54;53.80;;;12.17;;
33152;SDS011;19509;43.862;26.176;2022-12-16T09:22:38;36.80;;;11.40;;
33152;SDS011;19509;43.862;26.176;2022-12-16T09:25:22;44.40;;;10.20;;
33152;SDS011;19509;43.862;26.176;2022-12-16T09:28:06;40.30;;;8.50;;
33152;SDS011;19509;43.862;26.176;2022-12-16T09:30:50;62.03;;;10.17;;
33152;SDS011;19509;43.862;26.176;2022-12-16T09:33:34;31.43;;;8.90;;
33152;SDS011;19509;43.862;26.176;2022-12-16T09:36:18;40.13;;;5.67;;
33152;SDS011;19509;43.862;26.176;2022-12-16T09:39:02;20.70;;;6.70;;
33152;SDS011;19509;43.862;26.176;2022-12-16T09:45:04;63.33;;;9.87;;
33152;SDS011;19509;43.862;26.176;2022-12-16T09:48:34;83.27;;;13.30;;
33152;SDS011;19509;43.862;26.176;2022-12-16T09:51:30;77.50;;;7.43;;
33152;SDS011;19509;43.862;26.176;2022-12-16T09:54:15;17.20;;;4.63;;
33152;SDS011;19509;43.862;26.176;2022-12-16T09:57:02;33.00;;;6.03;;
33152;SDS011;19509;43.862;26.176;2022-12-16T09:59:53;20.90;;;4.73;;
33152;SDS011;19509;43.862;26.176;2022-12-16T10:02:41;33.67;;;5.57;;
33152;SDS011;19509;43.862;26.176;2022-12-16T10:05:30;47.37;;;5.97;;
33152;SDS011;19509;43.862;26.176;2022-12-16T10:09:07;17.27;;;3.90;;
33152;SDS011;19509;43.862;26.176;2022-12-16T10:14:58;64.07;;;8.20;;
33152;SDS011;19509;43.862;26.176;2022-12-16T10:17:46;29.53;;;4.27;;
33152;SDS011;19509;43.862;26.176;2022-12-16T10:20:41;40.50;;;5.53;;
33152;SDS011;19509;43.862;26.176;2022-12-16T10:26:49;15.20;;;3.10;;
33152;SDS011;19509;43.862;26.176;2022-12-16T10:29:37;6.40;;;2.20;;
33152;SDS011;19509;43.862;26.176;2022-12-16T10:32:26;2.13;;;2.13;;
33152;SDS011;19509;43.862;26.176;2022-12-16T10:35:33;12.60;;;2.60;;
33152;SDS011;19509;43.862;26.176;2022-12-16T10:38:21;14.23;;;3.07;;
33152;SDS011;19509;43.862;26.176;2022-12-16T10:41:12;35.20;;;3.93;;
33152;SDS011;19509;43.862;26.176;2022-12-16T10:43:56;20.23;;;3.50;;
33152;SDS011;19509;43.862;26.176;2022-12-16T10:47:09;27.77;;;4.20;;
33152;SDS011;19509;43.862;26.176;2022-12-16T10:49:53;4.87;;;2.60;;
33152;SDS011;19509;43.862;26.176;2022-12-16T10:58:36;7.20;;;2.67;;
33152;SDS011;19509;43.862;26.176;2022-12-16T11:01:28;8.90;;;2.77;;
33152;SDS011;19509;43.862;26.176;2022-12-16T11:04:29;4.07;;;2.70;;
33152;SDS011;19509;43.862;26.176;2022-12-16T11:10:41;17.20;;;2.90;;
33152;SDS011;19509;43.862;26.176;2022-12-16T11:13:26;7.70;;;2.60;;
33152;SDS011;19509;43.862;26.176;2022-12-16T11:16:21;5.83;;;2.40;;
33152;SDS011;19509;43.862;26.176;2022-12-16T11:28:11;7.93;;;3.47;;
33152;SDS011;19509;43.862;26.176;2022-12-16T11:30:56;9.37;;;3.23;;
33152;SDS011;19509;43.862;26.176;2022-12-16T11:33:43;15.87;;;3.47;;
33152;SDS011;19509;43.862;26.176;2022-12-16T11:36:28;3.43;;;2.80;;
33152;SDS011;19509;43.862;26.176;2022-12-16T11:39:19;3.03;;;2.60;;
33152;SDS011;19509;43.862;26.176;2022-12-16T11:42:06;4.60;;;3.90;;
33152;SDS011;19509;43.862;26.176;2022-12-16T11:44:56;5.53;;;3.00;;
33152;SDS011;19509;43.862;26.176;2022-12-16T11:48:01;3.40;;;3.00;;
33152;SDS011;19509;43.862;26.176;2022-12-16T11:50:55;4.90;;;2.90;;
33152;SDS011;19509;43.862;26.176;2022-12-16T11:53:51;3.23;;;3.03;;
33152;SDS011;19509;43.862;26.176;2022-12-16T11:56:42;10.87;;;5.00;;
33152;SDS011;19509;43.862;26.176;2022-12-16T12:05:52;5.30;;;4.90;;
33152;SDS011;19509;43.862;26.176;2022-12-16T12:09:00;4.73;;;4.33;;
33152;SDS011;19509;43.862;26.176;2022-12-16T12:15:01;7.40;;;7.00;;
33152;SDS011;19509;43.862;26.176;2022-12-16T12:21:23;5.97;;;5.50;;
33152;SDS011;19509;43.862;26.176;2022-12-16T12:30:03;11.83;;;5.40;;
33152;SDS011;19509;43.862;26.176;2022-12-16T12:41:45;31.67;;;7.33;;
33152;SDS011;19509;43.862;26.176;2022-12-16T12:50:53;10.40;;;7.80;;
33152;SDS011;19509;43.862;26.176;2022-12-16T12:53:47;74.73;;;16.83;;
33152;SDS011;19509;43.862;26.176;2022-12-16T12:56:47;10.47;;;6.57;;
33152;SDS011;19509;43.862;26.176;2022-12-16T13:05:38;12.23;;;9.07;;
33152;SDS011;19509;43.862;26.176;2022-12-16T13:11:20;30.93;;;10.00;;
33152;SDS011;19509;43.862;26.176;2022-12-16T13:17:15;20.83;;;8.30;;
33152;SDS011;19509;43.862;26.176;2022-12-16T13:20:00;31.13;;;10.90;;
33152;SDS011;19509;43.862;26.176;2022-12-16T13:22:45;67.63;;;13.10;;
33152;SDS011;19509;43.862;26.176;2022-12-16T13:25:35;92.37;;;18.50;;
33152;SDS011;19509;43.862;26.176;2022-12-16T13:28:39;29.20;;;10.47;;
33152;SDS011;19509;43.862;26.176;2022-12-16T13:31:25;152.50;;;20.63;;
33152;SDS011;19509;43.862;26.176;2022-12-16T13:36:59;82.60;;;14.47;;
33152;SDS011;19509;43.862;26.176;2022-12-16T13:39:56;57.13;;;11.00;;
33152;SDS011;19509;43.862;26.176;2022-12-16T13:48:26;85.23;;;18.87;;
33152;SDS011;19509;43.862;26.176;2022-12-16T13:54:28;67.60;;;16.00;;
33152;SDS011;19509;43.862;26.176;2022-12-16T13:57:18;43.13;;;11.73;;
33152;SDS011;19509;43.862;26.176;2022-12-16T14:00:04;96.83;;;19.60;;
33152;SDS011;19509;43.862;26.176;2022-12-16T14:02:58;37.53;;;11.07;;
33152;SDS011;19509;43.862;26.176;2022-12-16T14:05:44;31.07;;;9.03;;
33152;SDS011;19509;43.862;26.176;2022-12-16T14:08:28;75.97;;;15.50;;
33152;SDS011;19509;43.862;26.176;2022-12-16T14:11:25;54.30;;;13.27;;
33152;SDS011;19509;43.862;26.176;2022-12-16T14:14:19;69.83;;;12.87;;
33152;SDS011;19509;43.862;26.176;2022-12-16T14:17:08;71.90;;;16.93;;
33152;SDS011;19509;43.862;26.176;2022-12-16T14:22:52;28.30;;;10.37;;
33152;SDS011;19509;43.862;26.176;2022-12-16T14:25:42;37.70;;;12.50;;
33152;SDS011;19509;43.862;26.176;2022-12-16T14:28:28;73.67;;;18.13;;
33152;SDS011;19509;43.862;26.176;2022-12-16T14:31:21;35.27;;;13.17;;
33152;SDS011;19509;43.862;26.176;2022-12-16T14:34:18;42.67;;;13.60;;
33152;SDS011;19509;43.862;26.176;2022-12-16T14:37:15;67.43;;;16.73;;
33152;SDS011;19509;43.862;26.176;2022-12-16T14:43:13;32.43;;;8.77;;
33152;SDS011;19509;43.862;26.176;2022-12-16T14:46:32;60.73;;;18.30;;
33152;SDS011;19509;43.862;26.176;2022-12-16T14:52:14;17.47;;;9.23;;
33152;SDS011;19509;43.862;26.176;2022-12-16T14:55:16;25.07;;;9.00;;
33152;SDS011;19509;43.862;26.176;2022-12-16T15:00:47;69.20;;;19.53;;
33152;SDS011;19509;43.862;26.176;2022-12-16T15:03:39;56.60;;;15.50;;
33152;SDS011;19509;43.862;26.176;2022-12-16T15:06:27;53.30;;;15.30;;
33152;SDS011;19509;43.862;26.176;2022-12-16T15:12:07;28.47;;;9.70;;
33152;SDS011;19509;43.862;26.176;2022-12-16T15:14:53;24.77;;;9.97;;
33152;SDS011;19509;43.862;26.176;2022-12-16T15:17:52;49.47;;;15.30;;
33152;SDS011;19509;43.862;26.176;2022-12-16T15:20:57;62.27;;;19.43;;
33152;SDS011;19509;43.862;26.176;2022-12-16T15:23:41;25.27;;;11.13;;
33152;SDS011;19509;43.862;26.176;2022-12-16T15:26:31;19.20;;;11.00;;
33152;SDS011;19509;43.862;26.176;2022-12-16T15:35:08;29.00;;;9.17;;
33152;SDS011;19509;43.862;26.176;2022-12-16T15:38:11;82.13;;;21.77;;
33152;SDS011;19509;43.862;26.176;2022-12-16T15:40:55;55.00;;;18.33;;
33152;SDS011;19509;43.862;26.176;2022-12-16T15:43:39;57.60;;;17.07;;
33152;SDS011;19509;43.862;26.176;2022-12-16T15:46:24;62.97;;;19.47;;
33152;SDS011;19509;43.862;26.176;2022-12-16T15:49:15;49.83;;;15.97;;
33152;SDS011;19509;43.862;26.176;2022-12-16T15:58:23;109.40;;;26.87;;
33152;SDS011;19509;43.862;26.176;2022-12-16T16:01:11;16.83;;;11.87;;
33152;SDS011;19509;43.862;26.176;2022-12-16T16:03:57;67.80;;;23.60;;
33152;SDS011;19509;43.862;26.176;2022-12-16T16:06:44;86.00;;;25.67;;
33152;SDS011;19509;43.862;26.176;2022-12-16T16:09:35;49.83;;;17.30;;
33152;SDS011;19509;43.862;26.176;2022-12-16T16:12:29;180.57;;;33.60;;
33152;SDS011;19509;43.862;26.176;2022-12-16T16:15:13;155.03;;;31.87;;
33152;SDS011;19509;43.862;26.176;2022-12-16T16:17:58;166.23;;;36.37;;
33152;SDS011;19509;43.862;26.176;2022-12-16T16:20:44;151.77;;;33.83;;
33152;SDS011;19509;43.862;26.176;2022-12-16T16:23:28;58.47;;;18.67;;
33152;SDS011;19509;43.862;26.176;2022-12-16T16:26:14;105.00;;;23.70;;
33152;SDS011;19509;43.862;26.176;2022-12-16T16:28:59;39.53;;;16.00;;
33152;SDS011;19509;43.862;26.176;2022-12-16T16:31:43;50.20;;;14.77;;
33152;SDS011;19509;43.862;26.176;2022-12-16T16:34:27;101.93;;;23.27;;
33152;SDS011;19509;43.862;26.176;2022-12-16T16:37:12;170.30;;;32.70;;
33152;SDS011;19509;43.862;26.176;2022-12-16T16:39:58;123.87;;;23.77;;
33152;SDS011;19509;43.862;26.176;2022-12-16T16:42:42;123.00;;;25.90;;
33152;SDS011;19509;43.862;26.176;2022-12-16T16:45:26;156.07;;;29.53;;
33152;SDS011;19509;43.862;26.176;2022-12-16T16:48:11;122.67;;;23.00;;
33152;SDS011;19509;43.862;26.176;2022-12-16T16:50:58;92.67;;;21.93;;
33152;SDS011;19509;43.862;26.176;2022-12-16T16:53:42;98.80;;;22.37;;
33152;SDS011;19509;43.862;26.176;2022-12-16T16:56:28;50.60;;;13.90;;
33152;SDS011;19509;43.862;26.176;2022-12-16T16:59:17;77.00;;;17.90;;
33152;SDS011;19509;43.862;26.176;2022-12-16T17:02:01;119.60;;;26.87;;
33152;SDS011;19509;43.862;26.176;2022-12-16T17:04:45;113.83;;;23.10;;
33152;SDS011;19509;43.862;26.176;2022-12-16T17:07:29;65.20;;;13.47;;
33152;SDS011;19509;43.862;26.176;2022-12-16T17:10:13;93.17;;;20.17;;
33152;SDS011;19509;43.862;26.176;2022-12-16T17:12:57;39.27;;;13.53;;
33152;SDS011;19509;43.862;26.176;2022-12-16T17:15:41;73.50;;;19.73;;
33152;SDS011;19509;43.862;26.176;2022-12-16T17:18:25;129.07;;;29.07;;
33152;SDS011;19509;43.862;26.176;2022-12-16T17:21:09;188.20;;;35.00;;
33152;SDS011;19509;43.862;26.176;2022-12-16T17:23:53;63.53;;;14.60;;
33152;SDS011;19509;43.862;26.176;2022-12-16T17:26:40;152.50;;;30.40;;
33152;SDS011;19509;43.862;26.176;2022-12-16T17:29:25;97.53;;;25.10;;
33152;SDS011;19509;43.862;26.176;2022-12-16T17:32:10;127.97;;;27.60;;
33152;SDS011;19509;43.862;26.176;2022-12-16T17:34:54;144.83;;;29.17;;
33152;SDS011;19509;43.862;26.176;2022-12-16T17:37:38;170.90;;;28.13;;
33152;SDS011;19509;43.862;26.176;2022-12-16T17:40:22;187.43;;;35.97;;
33152;SDS011;19509;43.862;26.176;2022-12-16T17:43:07;218.43;;;36.20;;
33152;SDS011;19509;43.862;26.176;2022-12-16T17:46:01;195.30;;;32.50;;
33152;SDS011;19509;43.862;26.176;2022-12-16T17:48:50;104.33;;;23.53;;
33152;SDS011;19509;43.862;26.176;2022-12-16T17:51:36;150.23;;;27.80;;
33152;SDS011;19509;43.862;26.176;2022-12-16T17:54:20;146.23;;;30.77;;
33152;SDS011;19509;43.862;26.176;2022-12-16T17:57:04;149.37;;;29.30;;
33152;SDS011;19509;43.862;26.176;2022-12-16T18:00:02;88.67;;;21.27;;
33152;SDS011;19509;43.862;26.176;2022-12-16T18:02:46;60.93;;;20.37;;
33152;SDS011;19509;43.862;26.176;2022-12-16T18:05:30;52.47;;;17.07;;
33152;SDS011;19509;43.862;26.176;2022-12-16T18:08:14;75.37;;;21.90;;